createdAt,value
2019-04-01T00:02:01.302Z,102271.93
2019-04-01T00:04:33.191Z,102272.94
2019-04-01T00:07:03.461Z,102273.20
2019-04-01T00:09:33.615Z,102280.81
2019-04-01T00:12:05.390Z,102275.47
2019-04-01T00:14:35.536Z,102282.03
2019-04-01T00:17:05.693Z,102281.11
2019-04-01T00:19:35.797Z,102278.36
2019-04-01T00:22:06.022Z,102268.52
2019-04-01T00:24:36.223Z,102268.91
2019-04-01T00:27:06.339Z,102272.27
2019-04-01T00:29:36.403Z,102272.88
2019-04-01T00:32:09.449Z,102266.81
2019-04-01T00:34:39.611Z,102265.41
2019-04-01T00:37:09.976Z,102272.22
2019-04-01T00:39:40.327Z,102271.50
2019-04-01T00:42:24.521Z,102273.20
2019-04-01T00:44:54.607Z,102277.04
2019-04-01T00:47:24.731Z,102272.28
2019-04-01T00:49:54.928Z,102269.77
2019-04-01T00:52:28.381Z,102268.51
2019-04-01T00:55:01.519Z,102267.10
2019-04-01T00:57:32.003Z,102264.73
2019-04-01T01:00:02.209Z,102261.23
2019-04-01T01:02:32.855Z,102263.77
2019-04-01T01:05:02.969Z,102257.95
2019-04-01T01:07:36.202Z,102260.95
2019-04-01T01:10:07.340Z,102261.34
2019-04-01T01:12:37.553Z,102263.25
2019-04-01T01:15:08.160Z,102262.37
2019-04-01T01:17:38.284Z,102256.99
2019-04-01T01:20:08.816Z,102253.84
2019-04-01T01:22:39.024Z,102255.69
2019-04-01T01:25:09.389Z,102256.06
2019-04-01T01:27:39.574Z,102250.10
2019-04-01T01:30:09.801Z,102259.66
2019-04-01T01:32:39.984Z,102256.02
2019-04-01T01:35:10.130Z,102252.81
2019-04-01T01:37:41.096Z,102251.90
2019-04-01T01:40:11.232Z,102254.98
2019-04-01T01:42:41.406Z,102262.78
2019-04-01T01:45:11.663Z,102254.34
2019-04-01T01:47:41.903Z,102257.17
2019-04-01T01:50:12.167Z,102255.89
2019-04-01T01:52:42.317Z,102260.03
2019-04-01T01:55:12.470Z,102254.69
2019-04-01T01:57:42.635Z,102257.30
2019-04-01T02:00:14.290Z,102257.20
2019-04-01T02:02:44.492Z,102263.75
2019-04-01T02:05:14.783Z,102256.51
2019-04-01T02:07:44.946Z,102248.95
2019-04-01T02:10:15.953Z,102254.25
2019-04-01T02:12:46.149Z,102244.72
2019-04-01T02:15:17.273Z,102244.14
2019-04-01T02:17:47.394Z,102246.56
2019-04-01T02:20:17.708Z,102244.41
2019-04-01T02:22:47.866Z,102244.00
2019-04-01T02:25:18.239Z,102240.09
2019-04-01T02:27:49.369Z,102235.94
2019-04-01T02:30:19.547Z,102238.40
2019-04-01T02:32:52.448Z,102235.77
2019-04-01T02:35:22.557Z,102241.78
2019-04-01T02:37:55.662Z,102236.89
2019-04-01T02:40:25.821Z,102246.06
2019-04-01T02:42:56.174Z,102242.48
2019-04-01T02:45:26.418Z,102239.16
2019-04-01T02:47:57.921Z,102242.48
2019-04-01T02:50:28.100Z,102240.01
2019-04-01T02:52:58.244Z,102240.45
2019-04-01T02:55:28.512Z,102242.85
2019-04-01T02:58:00.278Z,102249.08
2019-04-01T03:00:30.476Z,102243.45
2019-04-01T03:03:00.601Z,102243.08
2019-04-01T03:05:30.755Z,102247.72
2019-04-01T03:08:05.058Z,102241.89
2019-04-01T03:10:36.892Z,102242.00
2019-04-01T03:13:07.022Z,102240.81
2019-04-01T03:15:37.150Z,102243.53
2019-04-01T03:18:07.595Z,102241.30
2019-04-01T03:20:37.818Z,102243.03
2019-04-01T03:23:09.014Z,102243.13
2019-04-01T03:25:39.385Z,102243.95
2019-04-01T03:28:09.489Z,102246.02
2019-04-01T03:30:44.639Z,102244.12
2019-04-01T03:33:12.789Z,102244.94
2019-04-01T03:35:43.109Z,102247.50
2019-04-01T03:38:13.233Z,102244.22
2019-04-01T03:40:45.325Z,102241.83
2019-04-01T03:43:18.934Z,102249.55
2019-04-01T03:45:51.399Z,102246.99
2019-04-01T03:48:23.971Z,102250.85
2019-04-01T03:50:54.152Z,102253.25
2019-04-01T03:53:26.769Z,102253.13
2019-04-01T03:55:58.341Z,102248.22
2019-04-01T03:58:31.254Z,102253.56
2019-04-01T04:01:02.524Z,102250.89
2019-04-01T04:03:34.495Z,102247.03
2019-04-01T04:06:04.800Z,102248.43
2019-04-01T04:08:40.127Z,102242.56
2019-04-01T04:11:10.330Z,102241.88
2019-04-01T04:13:40.475Z,102241.94
2019-04-01T04:16:10.833Z,102241.45
2019-04-01T04:18:41.541Z,102241.88
2019-04-01T04:21:12.421Z,102248.46
2019-04-01T04:23:45.112Z,102243.51
2019-04-01T04:26:15.296Z,102242.81
2019-04-01T04:28:45.457Z,102245.96
2019-04-01T04:31:15.616Z,102245.00
2019-04-01T04:33:45.742Z,102240.82
2019-04-01T04:36:15.944Z,102242.59
2019-04-01T04:38:46.153Z,102245.84
2019-04-01T04:41:16.883Z,102242.75
2019-04-01T04:43:47.075Z,102253.66
2019-04-01T04:46:20.881Z,102244.00
2019-04-01T04:48:49.350Z,102241.07
2019-04-01T04:51:19.529Z,102241.44
2019-04-01T04:53:49.685Z,102245.38
2019-04-01T04:56:19.835Z,102246.20
2019-04-01T04:58:49.993Z,102240.41
2019-04-01T05:01:20.225Z,102240.16
2019-04-01T05:03:50.433Z,102242.61
2019-04-01T05:06:20.589Z,102243.22
2019-04-01T05:08:51.037Z,102240.08
2019-04-01T05:11:21.265Z,102251.97
2019-04-01T05:13:51.449Z,102257.52
2019-04-01T05:16:21.721Z,102255.81
2019-04-01T05:18:51.921Z,102259.23
2019-04-01T05:21:22.411Z,102252.69
2019-04-01T05:23:54.299Z,102261.89
2019-04-01T05:26:25.403Z,102259.28
2019-04-01T05:28:57.264Z,102255.73
2019-04-01T05:31:28.898Z,102258.40
2019-04-01T05:34:01.624Z,102258.40
2019-04-01T05:36:32.375Z,102261.54
2019-04-01T05:39:02.625Z,102258.97
2019-04-01T05:41:33.296Z,102260.64
2019-04-01T05:44:03.550Z,102270.13
2019-04-01T05:46:33.665Z,102272.92
2019-04-01T05:49:03.882Z,102269.53
2019-04-01T05:51:34.147Z,102272.80
2019-04-01T05:54:04.366Z,102270.72
2019-04-01T05:56:34.519Z,102273.69
2019-04-01T05:59:04.690Z,102276.61
2019-04-01T06:01:38.649Z,102276.40
2019-04-01T06:04:08.794Z,102281.68
2019-04-01T06:06:39.224Z,102281.47
2019-04-01T06:09:09.899Z,102282.69
2019-04-01T06:11:39.997Z,102283.52
2019-04-01T06:14:10.224Z,102278.79
2019-04-01T06:16:40.464Z,102275.05
2019-04-01T06:19:10.688Z,102275.05
2019-04-01T06:21:41.366Z,102279.17
2019-04-01T06:24:12.599Z,102286.54
2019-04-01T06:26:42.914Z,102274.90
2019-04-01T06:29:13.294Z,102281.92
2019-04-01T06:31:43.716Z,102279.20
2019-04-01T06:37:53.834Z,102286.59
2019-04-01T06:41:08.043Z,102283.60
2019-04-01T06:43:37.098Z,102284.34
2019-04-01T06:46:07.322Z,102281.34
2019-04-01T06:48:37.575Z,102281.16
2019-04-01T06:51:07.677Z,102281.86
2019-04-01T06:53:38.023Z,102275.80
2019-04-01T06:56:08.188Z,102272.34
2019-04-01T06:58:38.547Z,102271.38
2019-04-01T07:01:08.733Z,102272.12
2019-04-01T07:03:39.427Z,102271.14
2019-04-01T07:06:09.648Z,102274.45
2019-04-01T07:08:39.848Z,102264.69
2019-04-01T07:11:09.996Z,102262.80
2019-04-01T07:13:40.500Z,102266.88
2019-04-01T07:16:15.967Z,102260.95
2019-04-01T07:18:42.814Z,102263.11
2019-04-01T07:21:13.098Z,102263.38
2019-04-01T07:23:43.362Z,102272.83
2019-04-01T07:26:13.624Z,102266.08
2019-04-01T07:28:43.922Z,102267.03
2019-04-01T07:31:14.152Z,102266.12
2019-04-01T07:33:44.286Z,102271.06
2019-04-01T07:36:14.513Z,102268.75
2019-04-01T07:38:44.681Z,102270.72
2019-04-01T07:41:14.852Z,102268.03
2019-04-01T07:43:45.130Z,102269.72
2019-04-01T07:46:15.368Z,102269.14
2019-04-01T07:48:46.137Z,102274.20
2019-04-01T07:51:16.404Z,102273.16
2019-04-01T07:53:46.572Z,102267.33
2019-04-01T07:56:16.746Z,102270.98
2019-04-01T07:58:47.411Z,102278.17
2019-04-01T08:01:18.192Z,102264.48
2019-04-01T08:03:48.328Z,102264.59
2019-04-01T08:06:23.485Z,102267.63
2019-04-01T08:08:53.626Z,102263.52
2019-04-01T08:11:31.866Z,102264.52
2019-04-01T08:14:03.326Z,102257.77
2019-04-01T08:16:34.117Z,102256.28
2019-04-01T08:19:06.249Z,102256.21
2019-04-01T08:21:52.502Z,102250.11
2019-04-01T08:24:23.053Z,102249.53
2019-04-01T08:27:01.841Z,102254.98
2019-04-01T08:29:32.690Z,102249.12
2019-04-01T08:32:07.676Z,102244.89
2019-04-01T08:34:59.764Z,102242.16
2019-04-01T08:37:40.520Z,102246.27
2019-04-01T08:40:10.335Z,102244.61
2019-04-01T08:42:40.528Z,102247.76
2019-04-01T08:48:12.055Z,102234.61
2019-04-01T08:50:42.322Z,102238.56
2019-04-01T08:53:14.861Z,102229.00
2019-04-01T08:55:45.196Z,102230.22
2019-04-01T08:58:15.502Z,102230.22
2019-04-01T09:00:45.755Z,102222.45
2019-04-01T09:03:16.039Z,102226.13
2019-04-01T09:05:49.818Z,102219.47
2019-04-01T09:08:21.307Z,102221.57
2019-04-01T09:10:51.844Z,102227.13
2019-04-01T09:13:22.173Z,102225.91
2019-04-01T09:15:52.475Z,102223.27
2019-04-01T09:18:22.641Z,102226.72
2019-04-01T09:20:52.761Z,102217.91
2019-04-01T09:23:24.820Z,102218.20
2019-04-01T09:25:55.085Z,102214.95
2019-04-01T09:28:25.271Z,102220.23
2019-04-01T09:30:55.852Z,102211.05
2019-04-01T09:33:26.047Z,102207.61
2019-04-01T09:36:00.139Z,102209.84
2019-04-01T09:38:30.611Z,102206.33
2019-04-01T09:41:02.925Z,102203.02
2019-04-01T09:43:33.122Z,102196.85
2019-04-01T09:46:03.258Z,102193.96
2019-04-01T09:48:34.121Z,102189.94
2019-04-01T09:51:04.215Z,102197.41
2019-04-01T09:53:34.484Z,102189.80
2019-04-01T09:56:04.599Z,102178.92
2019-04-01T09:58:34.873Z,102172.02
2019-04-01T10:01:05.106Z,102172.13
2019-04-01T10:03:35.287Z,102158.04
2019-04-01T10:06:05.648Z,102155.75
2019-04-01T10:08:42.289Z,102163.25
2019-04-01T10:11:08.002Z,102153.19
2019-04-01T10:13:38.174Z,102158.09
2019-04-01T10:16:08.397Z,102150.19
2019-04-01T10:18:41.689Z,102131.39
2019-04-01T10:21:11.874Z,102145.87
2019-04-01T10:23:42.153Z,102149.89
2019-04-01T10:26:12.315Z,102137.65
2019-04-01T10:28:43.255Z,102137.72
2019-04-01T10:31:13.436Z,102131.64
2019-04-01T10:33:43.707Z,102129.02
2019-04-01T10:36:13.875Z,102131.77
2019-04-01T10:38:46.628Z,102126.11
2019-04-01T10:41:21.283Z,102122.12
2019-04-01T10:43:51.497Z,102107.98
2019-04-01T10:46:21.665Z,102112.87
2019-04-01T10:48:53.029Z,102107.52
2019-04-01T10:51:24.764Z,102105.77
2019-04-01T10:53:55.969Z,102106.26
2019-04-01T10:56:26.258Z,102108.51
2019-04-01T10:58:59.448Z,102093.03
2019-04-01T11:01:29.963Z,102095.62
2019-04-01T11:04:00.154Z,102087.75
2019-04-01T11:06:30.693Z,102084.24
2019-04-01T11:09:04.656Z,102085.09
2019-04-01T11:11:35.024Z,102078.50
2019-04-01T11:14:05.370Z,102082.55
2019-04-01T11:16:35.670Z,102074.20
2019-04-01T11:19:05.915Z,102063.63
2019-04-01T11:21:36.093Z,102062.32
2019-04-01T11:24:07.682Z,102063.22
2019-04-01T11:26:41.089Z,102061.00
2019-04-01T11:29:14.964Z,102054.42
2019-04-01T11:31:45.690Z,102057.55
2019-04-01T11:34:16.147Z,102056.23
2019-04-01T11:36:46.289Z,102048.70
2019-04-01T11:39:18.851Z,102057.13
2019-04-01T11:41:49.027Z,102038.56
2019-04-01T11:44:20.446Z,102037.69
2019-04-01T11:46:58.305Z,102036.83
2019-04-01T11:49:28.637Z,102035.96
2019-04-01T11:51:59.061Z,102039.47
2019-04-01T11:54:29.236Z,102027.58
2019-04-01T11:56:59.522Z,102026.75
2019-04-01T11:59:38.078Z,102020.55
2019-04-01T12:02:23.030Z,102007.31
2019-04-01T12:04:55.447Z,101998.95
2019-04-01T12:07:26.609Z,101998.53
2019-04-01T12:09:56.977Z,102001.19
2019-04-01T12:12:27.524Z,101988.39
2019-04-01T12:14:58.316Z,101974.71
2019-04-01T12:17:29.578Z,101971.16
2019-04-01T12:19:59.959Z,101982.65
2019-04-01T12:22:30.249Z,101980.91
2019-04-01T12:25:06.200Z,101977.35
2019-04-01T12:27:40.491Z,101964.98
2019-04-01T12:30:12.494Z,101967.23
2019-04-01T12:32:43.012Z,101965.05
2019-04-01T12:35:13.801Z,101956.66
2019-04-01T12:37:43.962Z,101954.88
2019-04-01T12:40:15.067Z,101946.50
2019-04-01T12:42:46.318Z,101942.55
2019-04-01T12:45:21.281Z,101939.00
2019-04-01T12:47:51.712Z,101922.65
2019-04-01T12:50:21.871Z,101928.41
2019-04-01T12:52:52.027Z,101921.33
2019-04-01T12:55:22.178Z,101900.16
2019-04-01T12:57:53.493Z,101911.20
2019-04-01T13:00:23.839Z,101914.28
2019-04-01T13:02:54.040Z,101909.42
2019-04-01T13:05:24.157Z,101901.02
2019-04-01T13:07:54.444Z,101893.07
2019-04-01T13:10:24.551Z,101892.20
2019-04-01T13:12:56.132Z,101890.41
2019-04-01T13:15:28.495Z,101880.27
2019-04-01T13:17:58.713Z,101880.27
2019-04-01T13:20:37.767Z,101860.39
2019-04-01T13:23:00.832Z,101872.77
2019-04-01T13:25:31.007Z,101862.14
2019-04-01T13:28:01.230Z,101859.08
2019-04-01T13:30:31.524Z,101859.05
2019-04-01T13:33:02.606Z,101847.98
2019-04-01T13:35:32.784Z,101840.95
2019-04-01T13:38:04.015Z,101826.81
2019-04-01T13:40:34.269Z,101824.16
2019-04-01T13:43:04.847Z,101832.97
2019-04-01T13:45:35.338Z,101828.52
2019-04-01T13:48:05.953Z,101825.02
2019-04-01T13:50:38.547Z,101820.61
2019-04-01T13:53:09.303Z,101805.55
2019-04-01T13:55:42.989Z,101816.11
2019-04-01T13:58:29.746Z,101804.19
2019-04-01T14:01:00.586Z,101802.86
2019-04-01T14:03:35.209Z,101791.38
2019-04-01T14:06:05.651Z,101798.47
2019-04-01T14:08:35.865Z,101783.42
2019-04-01T14:11:07.487Z,101778.12
2019-04-01T14:13:42.016Z,101782.09
2019-04-01T14:16:15.262Z,101784.72
2019-04-01T14:18:51.101Z,101776.33
2019-04-01T14:21:23.374Z,101771.52
2019-04-01T14:23:56.241Z,101772.80
2019-04-01T14:26:26.354Z,101770.58
2019-04-01T14:28:56.580Z,101754.20
2019-04-01T14:31:27.316Z,101746.67
2019-04-01T14:33:58.466Z,101754.19
2019-04-01T14:36:29.028Z,101721.98
2019-04-01T14:38:59.436Z,101737.87
2019-04-01T14:41:29.782Z,101734.76
2019-04-01T14:44:00.007Z,101718.83
2019-04-01T14:46:32.669Z,101726.77
2019-04-01T14:49:03.291Z,101700.67
2019-04-01T14:51:33.677Z,101706.41
2019-04-01T14:54:05.150Z,101701.10
2019-04-01T14:56:36.603Z,101695.83
2019-04-01T14:59:06.854Z,101694.88
2019-04-01T15:01:38.268Z,101694.47
2019-04-01T15:04:10.092Z,101686.53
2019-04-01T15:06:41.823Z,101676.28
2019-04-01T15:09:13.376Z,101676.32
2019-04-01T15:11:44.679Z,101687.33
2019-04-01T15:14:19.069Z,101674.05
2019-04-01T15:16:51.899Z,101668.27
2019-04-01T15:19:43.457Z,101662.53
2019-04-01T15:22:19.812Z,101652.77
2019-04-01T15:24:59.013Z,101668.67
2019-04-01T15:27:32.718Z,101647.44
2019-04-01T15:30:04.894Z,101656.73
2019-04-01T15:32:35.529Z,101648.74
2019-04-01T15:35:07.022Z,101631.94
2019-04-01T15:37:37.897Z,101639.90
2019-04-01T15:40:16.102Z,101642.92
2019-04-01T15:42:58.292Z,101628.67
2019-04-01T15:45:31.499Z,101632.59
2019-04-01T15:48:05.333Z,101628.19
2019-04-01T15:50:40.110Z,101606.95
2019-04-01T15:53:10.253Z,101617.07
2019-04-01T15:55:43.760Z,101620.38
2019-04-01T15:58:17.127Z,101607.17
2019-04-01T16:00:50.971Z,101606.13
2019-04-01T16:03:23.516Z,101602.72
2019-04-01T16:06:08.602Z,101603.77
2019-04-01T16:08:39.234Z,101589.83
2019-04-01T16:11:10.036Z,101600.25
2019-04-01T16:13:40.136Z,101589.55
2019-04-01T16:16:14.186Z,101589.73
2019-04-01T16:18:42.576Z,101585.30
2019-04-01T16:21:12.876Z,101576.84
2019-04-01T16:23:47.118Z,101576.45
2019-04-01T16:26:21.596Z,101573.91
2019-04-01T16:28:53.431Z,101565.87
2019-04-01T16:31:26.234Z,101576.73
2019-04-01T16:33:58.239Z,101568.47
2019-04-01T16:36:32.530Z,101575.25
2019-04-01T16:39:02.630Z,101565.73
2019-04-01T16:41:34.415Z,101564.84
2019-04-01T16:44:10.608Z,101558.55
2019-04-01T16:47:05.286Z,101563.47
2019-04-01T16:49:36.621Z,101566.30
2019-04-01T16:52:08.263Z,101552.30
2019-04-01T16:54:38.620Z,101562.81
2019-04-01T16:57:10.004Z,101565.84
2019-04-01T16:59:40.162Z,101559.84
2019-04-01T17:02:17.830Z,101564.24
2019-04-01T17:04:45.866Z,101569.96
2019-04-01T17:07:14.516Z,101573.73
2019-04-01T17:09:45.322Z,101565.14
2019-04-01T17:12:15.526Z,101562.28
2019-04-01T17:14:45.665Z,101568.53
2019-04-01T17:17:16.420Z,101564.48
2019-04-01T17:19:49.627Z,101572.45
2019-04-01T17:22:19.766Z,101566.68
2019-04-01T17:24:51.551Z,101567.20
2019-04-01T17:27:21.798Z,101563.86
2019-04-01T17:30:03.543Z,101556.03
2019-04-01T17:32:33.814Z,101565.80
2019-04-01T17:35:04.374Z,101561.48
2019-04-01T17:37:34.545Z,101558.46
2019-04-01T17:40:06.803Z,101567.28
2019-04-01T17:42:40.596Z,101553.29
2019-04-01T17:45:35.265Z,101558.17
2019-04-01T17:48:10.901Z,101556.93
2019-04-01T17:50:41.890Z,101551.64
2019-04-01T17:59:19.511Z,101547.35
2019-04-01T18:01:51.089Z,101549.56
2019-04-01T18:04:37.951Z,101545.61
2019-04-01T18:07:16.535Z,101547.86
2019-04-01T18:09:48.004Z,101548.73
2019-04-01T18:12:18.592Z,101552.30
2019-04-01T18:14:49.057Z,101550.97
2019-04-01T18:17:19.813Z,101548.30
2019-04-01T18:19:56.247Z,101544.80
2019-04-01T18:22:26.388Z,101550.54
2019-04-01T18:25:01.318Z,101552.72
2019-04-01T18:27:32.669Z,101555.78
2019-04-01T18:30:08.526Z,101557.12
2019-04-01T18:32:38.815Z,101546.09
2019-04-01T18:35:18.217Z,101545.66
2019-04-01T18:37:55.207Z,101548.30
2019-04-01T18:40:42.027Z,101556.66
2019-04-01T18:44:01.081Z,101547.84
2019-04-01T18:46:52.218Z,101546.53
2019-04-01T18:49:34.763Z,101541.25
2019-04-01T18:52:29.876Z,101537.27
2019-04-01T18:55:23.947Z,101539.91
2019-04-01T18:57:59.678Z,101541.67
2019-04-01T19:00:31.891Z,101542.07
2019-04-01T19:03:02.207Z,101544.73
2019-04-01T19:05:32.490Z,101542.52
2019-04-01T19:08:04.912Z,101537.20
2019-04-01T19:10:39.321Z,101538.11
2019-04-01T19:13:13.751Z,101542.52
2019-04-01T19:15:44.474Z,101543.80
2019-04-01T19:18:18.016Z,101542.03
2019-04-01T19:20:56.290Z,101540.67
2019-04-01T19:23:25.788Z,101538.48
2019-04-01T19:25:58.022Z,101545.08
2019-04-01T19:28:33.098Z,101539.35
2019-04-01T19:31:03.520Z,101542.45
2019-04-01T19:33:34.717Z,101542.86
2019-04-01T19:36:07.686Z,101546.36
2019-04-01T19:38:37.925Z,101555.55
2019-04-01T19:41:12.455Z,101555.48
2019-04-01T19:43:42.543Z,101552.37
2019-04-01T19:46:12.738Z,101554.61
2019-04-01T19:48:44.921Z,101554.16
2019-04-01T19:51:15.144Z,101548.75
2019-04-01T19:53:45.298Z,101548.36
2019-04-01T19:56:15.569Z,101545.24
2019-04-01T19:58:45.967Z,101539.97
2019-04-01T20:01:16.196Z,101549.14
2019-04-01T20:03:49.402Z,101542.09
2019-04-01T20:06:22.781Z,101540.36
2019-04-01T20:08:51.997Z,101541.61
2019-04-01T20:11:22.342Z,101528.37
2019-04-01T20:13:54.990Z,101525.27
2019-04-01T20:16:25.414Z,101526.55
2019-04-01T20:18:56.059Z,101520.43
2019-04-01T20:21:29.506Z,101520.83
2019-04-01T20:24:02.775Z,101521.68
2019-04-01T20:26:33.308Z,101514.25
2019-04-01T20:29:03.547Z,101516.02
2019-04-01T20:31:33.854Z,101514.62
2019-04-01T20:34:19.013Z,101512.45
2019-04-01T20:36:40.878Z,101505.01
2019-04-01T20:39:11.094Z,101494.87
2019-04-01T20:41:41.304Z,101503.68
2019-04-01T20:44:13.763Z,101493.09
2019-04-01T20:46:44.226Z,101490.43
2019-04-01T20:49:17.366Z,101488.22
2019-04-01T20:51:47.939Z,101484.62
2019-04-01T20:54:18.311Z,101480.69
2019-04-01T20:56:49.109Z,101479.38
2019-04-01T20:59:22.686Z,101474.10
2019-04-01T21:01:53.368Z,101469.75
2019-04-01T21:04:23.517Z,101463.54
2019-04-01T21:06:54.070Z,101463.56
2019-04-01T21:09:24.276Z,101455.17
2019-04-01T21:11:54.877Z,101461.38
2019-04-01T21:14:25.163Z,101456.87
2019-04-01T21:16:56.018Z,101453.31
2019-04-01T21:19:26.501Z,101448.98
2019-04-01T21:21:56.709Z,101441.92
2019-04-01T21:24:26.880Z,101439.28
2019-04-01T21:26:57.085Z,101436.20
2019-04-01T21:29:27.419Z,101432.59
2019-04-01T21:31:57.562Z,101429.46
2019-04-01T21:34:27.977Z,101429.94
2019-04-01T21:36:58.137Z,101426.39
2019-04-01T21:39:29.972Z,101418.55
2019-04-01T21:42:00.381Z,101415.83
2019-04-01T21:44:30.572Z,101414.02
2019-04-01T21:47:00.695Z,101407.92
2019-04-01T21:49:30.955Z,101411.77
2019-04-01T21:52:02.124Z,101406.05
2019-04-01T21:54:32.508Z,101401.22
2019-04-01T21:57:02.709Z,101392.05
2019-04-01T21:59:32.925Z,101389.31
2019-04-01T22:02:03.526Z,101394.61
2019-04-01T22:04:33.777Z,101388.91
2019-04-01T22:07:04.311Z,101384.50
2019-04-01T22:09:34.529Z,101385.81
2019-04-01T22:12:04.699Z,101374.84
2019-04-01T22:14:34.931Z,101363.48
2019-04-01T22:17:34.921Z,101364.70
2019-04-01T22:20:06.574Z,101364.71
2019-04-01T22:22:37.439Z,101356.90
2019-04-01T22:25:07.803Z,101355.67
2019-04-01T22:27:37.915Z,101353.45
2019-04-01T22:30:08.499Z,101345.94
2019-04-01T22:32:38.724Z,101337.63
2019-04-01T22:35:09.017Z,101347.11
2019-04-01T22:37:39.172Z,101339.25
2019-04-01T22:40:09.364Z,101338.85
2019-04-01T22:42:39.483Z,101342.27
2019-04-01T22:45:10.425Z,101327.28
2019-04-01T22:47:40.549Z,101331.74
2019-04-01T22:50:11.099Z,101332.04
2019-04-01T22:52:42.307Z,101326.36
2019-04-01T22:55:12.628Z,101324.66
2019-04-01T22:57:42.786Z,101325.05
2019-04-01T23:00:13.822Z,101318.06
2019-04-01T23:02:44.746Z,101324.20
2019-04-01T23:05:14.881Z,101322.00
2019-04-01T23:07:45.178Z,101317.50
2019-04-01T23:10:15.542Z,101318.80
2019-04-01T23:12:46.609Z,101307.89
2019-04-01T23:15:16.961Z,101312.70
2019-04-01T23:17:47.138Z,101308.67
2019-04-01T23:20:17.629Z,101303.04
2019-04-01T23:22:47.809Z,101302.52
2019-04-01T23:25:17.993Z,101289.81
2019-04-01T23:27:48.202Z,101294.20
2019-04-01T23:30:19.381Z,101292.31
2019-04-01T23:32:50.285Z,101291.95
2019-04-01T23:35:22.363Z,101279.75
2019-04-01T23:37:53.873Z,101278.75
2019-04-01T23:40:24.139Z,101274.83
2019-04-01T23:42:54.443Z,101277.80
2019-04-01T23:45:24.699Z,101281.69
2019-04-01T23:47:54.954Z,101275.95
2019-04-01T23:50:25.841Z,101273.38
2019-04-01T23:52:56.177Z,101268.96
2019-04-01T23:55:26.789Z,101267.19
2019-04-01T23:57:57.251Z,101258.45
